Time;durP1;ratioP1;P1;durP2;ratioP2;P2;SDS_P1;SDS_P2;PMS_P1;PMS_P2;Temp;Humidity;BMP_temperature;BMP_pressure;BME280_temperature;BME280_humidity;BME280_pressure;Samples;Min_cycle;Max_cycle;Signal;HPM_P1;HPM_P2
2021/11/15 00:18:42;;;;;;;33.13;22.27;;;;;;;6.28;90.70;95482.97;5072242;28;20432;-83
2021/11/15 00:21:09;;;;;;;33.40;20.37;;;;;;;6.29;90.46;95482.03;5055303;28;20443;-83
2021/11/15 00:23:36;;;;;;;41.87;24.13;;;;;;;6.28;90.40;95488.19;5038525;28;20487;-83
2021/11/15 00:26:03;;;;;;;32.37;20.20;;;;;;;6.23;89.55;95485.84;5075447;28;20563;-83
2021/11/15 00:28:30;;;;;;;35.90;23.07;;;;;;;6.21;88.62;95492.91;5077021;28;20865;-83
2021/11/15 00:30:57;;;;;;;38.07;23.93;;;;;;;6.23;88.39;95493.66;5076905;28;20511;-83
2021/11/15 00:33:24;;;;;;;32.20;20.90;;;;;;;6.24;88.61;95502.31;5077306;28;20511;-83
2021/11/15 00:35:52;;;;;;;35.53;22.70;;;;;;;6.25;87.91;95498.78;5076746;28;20459;-83
2021/11/15 00:38:20;;;;;;;37.60;22.60;;;;;;;6.25;87.49;95496.19;5076846;28;20430;-83
2021/11/15 00:40:47;;;;;;;40.23;22.97;;;;;;;6.24;87.85;95503.16;5077387;28;20432;-83
2021/11/15 00:43:15;;;;;;;40.67;24.77;;;;;;;6.24;87.40;95497.94;5077470;28;20423;-83
2021/11/15 00:45:45;;;;;;;42.53;23.80;;;;;;;6.24;87.74;95497.09;5058216;28;20580;-82
2021/11/15 00:48:12;;;;;;;45.10;23.07;;;;;;;6.21;87.37;95496.34;5041681;28;20444;-83
2021/11/15 00:50:40;;;;;;;35.87;22.60;;;;;;;6.17;87.31;95489.66;5041819;28;20443;-83
2021/11/15 00:53:09;;;;;;;38.63;23.77;;;;;;;6.18;86.65;95496.53;5076658;28;20507;-83
2021/11/15 00:55:36;;;;;;;40.07;22.40;;;;;;;6.16;86.41;95495.78;5076631;28;21002;-83
2021/11/15 00:58:05;;;;;;;38.90;22.50;;;;;;;6.15;86.18;95499.31;5076686;28;20462;-83
2021/11/15 01:00:35;;;;;;;40.73;22.87;;;;;;;6.14;86.07;95497.66;5076521;28;20457;-83
2021/11/15 01:03:06;;;;;;;40.90;23.47;;;;;;;6.12;86.29;95493.47;5077370;28;20448;-83
2021/11/15 01:05:34;;;;;;;78.00;45.30;;;;;;;6.08;86.22;95492.81;5076277;28;20483;-83
2021/11/15 01:08:01;;;;;;;60.50;34.77;;;;;;;6.03;85.97;95484.38;5077418;28;20434;-83
2021/11/15 01:10:29;;;;;;;50.23;28.87;;;;;;;5.95;86.06;95486.59;5076517;28;20432;-83
2021/11/15 01:12:56;;;;;;;35.53;22.43;;;;;;;5.93;86.86;95485.84;5076704;28;20481;-83
2021/11/15 01:15:28;;;;;;;40.07;23.03;;;;;;;5.94;86.85;95484.91;5076127;28;20435;-83
2021/11/15 01:17:56;;;;;;;32.83;21.10;;;;;;;5.97;87.58;95489.94;5076306;28;20433;-83
2021/11/15 01:20:31;;;;;;;31.77;20.77;;;;;;;5.96;88.54;95482.22;5077228;28;20434;-83
2021/11/15 01:22:59;;;;;;;41.50;20.77;;;;;;;5.97;89.62;95489.09;5075835;28;20435;-83
2021/11/15 01:25:40;;;;;;;32.73;20.43;;;;;;;6.02;89.10;95489.69;5040708;28;20433;-83
2021/11/15 01:28:08;;;;;;;36.33;22.83;;;;;;;6.04;89.35;95482.63;5075927;28;20432;-83
2021/11/15 01:30:36;;;;;;;34.77;21.87;;;;;;;6.01;89.49;95475.81;5040885;28;20446;-83
2021/11/15 01:33:03;;;;;;;28.43;19.60;;;;;;;6.04;89.58;95483.44;5075857;28;20439;-83
2021/11/15 01:35:30;;;;;;;29.57;19.43;;;;;;;6.05;89.21;95481.69;5075571;28;20439;-83
2021/11/15 01:37:57;;;;;;;35.67;22.00;;;;;;;6.08;89.64;95482.38;5076054;28;20435;-83
2021/11/15 02:00:42;;;;;;;34.40;19.67;;;;;;;5.98;92.13;95480.38;5075402;28;20474;-83
2021/11/15 02:03:10;;;;;;;39.13;21.23;;;;;;;5.99;91.83;95476.84;5075645;28;20783;-83
2021/11/15 02:05:37;;;;;;;34.30;19.33;;;;;;;5.99;91.89;95480.28;5075468;28;20476;-83
2021/11/15 02:08:05;;;;;;;39.90;22.37;;;;;;;6.02;91.54;95469.69;5076407;28;20782;-83
2021/11/15 02:10:32;;;;;;;39.90;21.67;;;;;;;6.05;91.94;95473.88;5075090;28;20520;-83
2021/11/15 02:16:23;;;;;;;30.40;20.33;;;;;;;6.01;92.18;95465.41;5074165;28;20478;-83
2021/11/15 02:18:50;;;;;;;36.13;21.43;;;;;;;6.03;91.77;95471.34;5074850;28;20436;-83
2021/11/15 02:21:18;;;;;;;37.63;21.83;;;;;;;6.02;91.86;95467.06;5074954;28;20961;-82
2021/11/15 02:23:46;;;;;;;32.87;19.50;;;;;;;6.05;90.98;95471.25;5040301;28;20463;-83
2021/11/15 02:26:16;;;;;;;33.00;20.77;;;;;;;6.09;90.96;95472.78;5074734;28;20483;-83
2021/11/15 02:28:45;;;;;;;27.87;19.80;;;;;;;6.12;90.67;95468.25;5074968;28;20432;-83
2021/11/15 02:31:15;;;;;;;35.37;20.03;;;;;;;6.13;90.52;95466.47;5074765;28;20436;-83
2021/11/15 02:33:42;;;;;;;37.03;21.00;;;;;;;6.10;90.37;95464.88;5074855;28;20520;-83
2021/11/15 02:39:32;;;;;;;33.20;22.20;;;;;;;6.11;90.79;95468.34;5073528;28;20467;-83
2021/11/15 02:41:59;;;;;;;32.50;21.17;;;;;;;6.09;91.57;95468.44;5075041;28;20436;-83
2021/11/15 02:44:28;;;;;;;29.80;20.50;;;;;;;6.08;91.99;95464.16;5074585;28;20451;-83
2021/11/15 02:46:55;;;;;;;40.57;19.90;;;;;;;6.10;92.01;95480.53;5074524;28;20490;-83
2021/11/15 02:49:22;;;;;;;30.73;18.97;;;;;;;6.13;92.34;95480.34;5073490;28;21036;-83
2021/11/15 02:51:50;;;;;;;31.90;21.20;;;;;;;6.09;91.52;95467.59;5074417;28;20440;-83
2021/11/15 02:54:20;;;;;;;34.00;20.57;;;;;;;6.14;92.39;95469.00;5039429;28;20486;-83
2021/11/15 02:56:48;;;;;;;31.43;19.50;;;;;;;6.18;91.88;95478.31;5074267;28;20436;-83
2021/11/15 03:02:54;;;;;;;32.00;21.33;;;;;;;6.17;92.03;95491.41;5074478;28;20415;-83
2021/11/15 03:05:26;;;;;;;27.37;18.40;;;;;;;6.10;90.26;95490.94;5074050;28;20451;-83
2021/11/15 03:07:54;;;;;;;31.60;19.67;;;;;;;6.06;88.88;95493.78;5073946;28;20475;-83
2021/11/15 03:10:21;;;;;;;29.53;20.17;;;;;;;6.03;90.03;95493.97;5073962;28;20954;-83
2021/11/15 03:12:50;;;;;;;32.83;21.03;;;;;;;6.01;88.81;95494.06;5074098;28;20445;-83
2021/11/15 03:15:26;;;;;;;37.43;21.63;;;;;;;5.97;88.89;95494.31;5073931;28;20429;-83
2021/11/15 03:17:55;;;;;;;34.37;21.80;;;;;;;5.92;88.74;95497.19;5074613;28;20507;-83
2021/11/15 03:20:23;;;;;;;27.10;18.87;;;;;;;5.92;89.46;95502.41;5074181;28;20436;-83
2021/11/15 03:22:50;;;;;;;36.40;22.50;;;;;;;5.84;88.07;95499.38;5074028;28;20446;-83
2021/11/15 03:25:17;;;;;;;46.30;26.83;;;;;;;5.77;88.29;95498.84;5073808;28;20443;-83
2021/11/15 03:27:44;;;;;;;48.50;26.97;;;;;;;5.70;87.54;95497.53;5073428;28;20479;-83
2021/11/15 03:30:13;;;;;;;38.87;25.30;;;;;;;5.64;87.30;95492.66;5073605;28;20977;-84
2021/11/15 03:32:47;;;;;;;45.57;25.73;;;;;;;5.61;87.49;95492.84;5055577;28;20447;-83
2021/11/15 03:35:14;;;;;;;42.43;26.40;;;;;;;5.55;88.67;95496.63;5073669;28;20447;-84
2021/11/15 03:37:42;;;;;;;48.30;27.27;;;;;;;5.52;88.50;95486.38;5073703;28;20444;-83
2021/11/15 03:40:14;;;;;;;47.73;26.00;;;;;;;5.54;88.22;95491.50;5074029;28;20446;-83
2021/11/15 03:42:42;;;;;;;37.40;24.80;;;;;;;5.36;87.91;95495.94;5055232;28;20445;-83
2021/11/15 03:45:16;;;;;;;40.33;24.73;;;;;;;5.35;88.93;95507.28;5073555;28;20447;-83
2021/11/15 03:47:44;;;;;;;40.37;24.97;;;;;;;5.25;88.67;95503.50;5073366;28;20483;-83
2021/11/15 03:50:11;;;;;;;46.70;25.73;;;;;;;5.25;88.39;95500.91;5055351;28;20466;-83
2021/11/15 03:52:39;;;;;;;36.10;24.37;;;;;;;5.24;87.88;95500.06;5074241;28;20470;-83
2021/11/15 03:55:08;;;;;;;36.97;24.10;;;;;;;5.26;87.97;95497.38;5073430;28;20440;-83
2021/11/15 03:57:35;;;;;;;41.13;23.00;;;;;;;5.27;87.69;95493.84;5073286;28;20519;-83
2021/11/15 04:00:05;;;;;;;42.97;24.13;;;;;;;5.27;87.36;95497.31;5073442;28;20503;-83
2021/11/15 04:02:34;;;;;;;44.47;24.00;;;;;;;5.29;86.53;95497.22;5055830;28;21034;-83
2021/11/15 04:05:21;;;;;;;40.07;25.10;;;;;;;5.21;86.32;95496.81;5055070;28;20448;-83
2021/11/15 04:07:49;;;;;;;49.47;25.20;;;;;;;5.18;87.56;95491.72;5073238;28;20557;-83
2021/11/15 04:10:20;;;;;;;47.33;29.07;;;;;;;5.18;86.58;95489.97;5038949;28;20444;-83
2021/11/15 04:12:48;;;;;;;39.97;25.80;;;;;;;5.16;87.48;95489.22;5073637;28;20436;-83
2021/11/15 04:15:15;;;;;;;52.90;27.23;;;;;;;5.14;87.26;95498.03;5073666;28;20448;-83
2021/11/15 04:17:45;;;;;;;43.67;28.80;;;;;;;5.14;86.24;95495.44;5038520;28;20458;-83
2021/11/15 04:20:15;;;;;;;43.87;26.50;;;;;;;5.12;87.18;95505.91;5073499;28;20428;-83
2021/11/15 04:22:42;;;;;;;47.57;27.50;;;;;;;5.08;86.17;95499.22;5073132;28;20440;-83
2021/11/15 04:25:12;;;;;;;47.90;25.17;;;;;;;5.04;87.18;95495.09;5073179;28;20514;-83
2021/11/15 04:27:39;;;;;;;44.47;26.53;;;;;;;5.03;85.88;95501.22;5073297;28;20571;-83
2021/11/15 04:30:09;;;;;;;41.23;27.13;;;;;;;4.98;85.41;95503.22;5054631;28;20515;-83
2021/11/15 04:32:38;;;;;;;51.30;26.67;;;;;;;4.92;85.21;95498.34;5073876;28;20436;-83
2021/11/15 04:35:08;;;;;;;50.17;29.67;;;;;;;4.90;85.42;95505.38;5072999;28;20543;-83
2021/11/15 04:37:35;;;;;;;47.97;27.30;;;;;;;4.83;85.54;95499.66;5073892;28;20508;-83
2021/11/15 04:40:02;;;;;;;45.30;27.20;;;;;;;4.80;85.69;95504.19;5072886;28;20433;-83
2021/11/15 04:42:29;;;;;;;35.20;22.40;;;;;;;4.76;86.21;95506.09;5073578;28;20433;-83
2021/11/15 05:08:28;;;;;;;40.83;18.80;;;;;;;4.91;89.52;95513.09;5072032;28;20545;-83
2021/11/15 05:10:55;;;;;;;31.03;18.77;;;;;;;4.96;89.89;95516.31;5073510;28;20435;-83
2021/11/15 05:13:22;;;;;;;43.80;21.93;;;;;;;4.94;90.03;95533.75;5076606;28;20515;-83
2021/11/15 05:15:49;;;;;;;38.77;21.63;;;;;;;5.01;90.95;95525.63;5076273;28;20443;-83
2021/11/15 05:18:16;;;;;;;56.83;27.50;;;;;;;5.02;90.95;95529.91;5076435;28;20527;-83
2021/11/15 05:20:43;;;;;;;49.03;26.07;;;;;;;5.04;91.22;95531.50;5076951;28;20452;-83
2021/11/15 05:23:10;;;;;;;35.83;20.93;;;;;;;5.09;90.52;95536.47;5057916;28;20554;-84
2021/11/15 05:25:41;;;;;;;51.83;26.70;;;;;;;5.14;90.08;95535.28;5076559;28;20432;-84
2021/11/15 05:28:14;;;;;;;51.77;30.33;;;;;;;5.18;91.27;95542.00;5076294;28;20479;-84
2021/11/15 05:30:41;;;;;;;38.53;25.20;;;;;;;5.20;90.62;95541.91;5041206;28;20519;-84
2021/11/15 05:33:08;;;;;;;32.90;18.20;;;;;;;4.99;94.91;95541.31;5075657;28;20448;-85
2021/11/15 05:35:36;;;;;;;42.77;21.10;;;;;;;5.19;97.59;95537.63;5076297;28;20432;-88
2021/11/15 05:38:03;;;;;;;32.27;20.97;;;;;;;5.36;97.61;95548.00;5076774;28;20444;-88
2021/11/15 05:40:30;;;;;;;44.73;26.40;;;;;;;5.10;93.56;95554.59;5077412;28;20493;-88
2021/11/15 05:42:58;;;;;;;59.40;29.07;;;;;;;5.06;93.54;95557.44;5076758;28;20463;-87
2021/11/15 05:45:27;;;;;;;49.13;28.17;;;;;;;4.94;92.72;95558.94;5076657;28;20528;-86
2021/11/15 05:47:54;;;;;;;48.37;26.83;;;;;;;4.76;94.00;95565.91;5076461;28;21002;-83
2021/11/15 05:50:23;;;;;;;43.20;28.53;;;;;;;4.88;92.72;95570.47;5076927;28;20507;-88
2021/11/15 06:09:39;;;;;;;70.67;36.93;;;;;;;6.04;89.56;95586.81;5096175;28;20835;-88
2021/11/15 06:12:07;;;;;;;81.30;37.37;;;;;;;6.14;89.32;95586.25;5097263;28;20442;-90
2021/11/15 06:14:34;;;;;;;91.70;43.00;;;;;;;6.20;89.32;95583.28;5097618;28;20438;-92
2021/11/15 06:17:01;;;;;;;72.20;41.17;;;;;;;6.31;88.25;95592.25;5045104;28;20530;-84
2021/11/15 06:23:34;;;;;;;137.00;64.40;;;;;;;6.58;87.68;95595.88;5095010;28;20395;-83
2021/11/15 06:26:02;;;;;;;143.17;71.23;;;;;;;6.72;86.46;95598.53;5055151;28;20484;-83
2021/11/15 06:28:29;;;;;;;142.40;65.77;;;;;;;6.81;87.41;95603.22;5055042;28;20520;-83
2021/11/15 06:30:56;;;;;;;104.50;52.30;;;;;;;6.99;87.75;95600.47;5054963;28;20440;-83
2021/11/15 06:33:23;;;;;;;71.53;38.30;;;;;;;7.05;87.66;95597.47;5055144;28;20438;-82
2021/11/15 06:35:50;;;;;;;70.43;39.73;;;;;;;7.23;87.21;95612.06;5056048;28;20543;-85
2021/11/15 06:38:17;;;;;;;51.87;29.57;;;;;;;7.26;86.98;95609.25;5055646;28;20442;-85
2021/11/15 06:40:45;;;;;;;80.20;37.30;;;;;;;7.41;86.25;95608.31;5055775;28;20449;-86
2021/11/15 06:43:13;;;;;;;69.23;37.30;;;;;;;7.56;87.07;95611.78;5055691;28;20548;-83
2021/11/15 06:45:40;;;;;;;54.70;32.37;;;;;;;7.70;85.61;95603.91;5054769;28;20522;-83
2021/11/15 06:48:07;;;;;;;48.13;30.57;;;;;;;7.87;85.12;95605.47;5054559;28;20556;-84
2021/11/15 06:50:34;;;;;;;44.40;28.07;;;;;;;8.65;100.00;95614.38;5055349;28;20857;-84
2021/11/15 06:53:01;;;;;;;49.63;28.50;;;;;;;8.74;88.41;95612.97;5054525;28;20447;-84
2021/11/15 06:55:31;;;;;;;37.97;25.10;;;;;;;8.87;84.46;95605.13;5054407;28;20530;-81
2021/11/15 06:57:58;;;;;;;42.50;27.60;;;;;;;8.95;82.64;95618.53;5054350;28;20440;-81
2021/11/15 07:00:28;;;;;;;39.23;25.23;;;;;;;9.06;82.24;95620.47;5054628;28;20477;-82
2021/11/15 07:02:56;;;;;;;38.20;19.80;;;;;;;8.99;81.53;95620.88;5054365;28;20524;-83
2021/11/15 07:05:24;;;;;;;31.50;22.03;;;;;;;8.90;82.17;95608.38;5054365;28;20436;-84
2021/11/15 07:07:53;;;;;;;34.70;21.53;;;;;;;8.89;82.36;95611.09;5054001;28;20473;-83
2021/11/15 07:10:21;;;;;;;36.92;25.83;;;;;;;9.04;84.04;95610.09;5053178;28;20438;-82
2021/11/15 07:12:49;;;;;;;43.87;24.87;;;;;;;8.83;84.38;95614.13;5054349;28;20896;-82
2021/11/15 07:15:17;;;;;;;35.20;25.70;;;;;;;8.70;84.91;95611.50;5054055;28;20528;-83
2021/11/15 07:21:07;;;;;;;49.67;28.20;;;;;;;8.88;86.67;95607.66;5053333;28;21030;-83
2021/11/15 07:23:34;;;;;;;44.73;27.43;;;;;;;8.91;86.50;95609.22;5057499;28;20937;-83
2021/11/15 07:26:02;;;;;;;46.73;29.00;;;;;;;9.04;86.28;95610.09;5094149;28;20526;-83
2021/11/15 07:28:29;;;;;;;45.70;26.93;;;;;;;9.13;86.93;95609.47;5094087;28;20911;-83
2021/11/15 07:30:56;;;;;;;47.10;28.50;;;;;;;9.19;86.70;95603.81;5094453;28;20518;-83
2021/11/15 07:33:24;;;;;;;48.00;28.57;;;;;;;9.24;87.21;95606.94;5058778;28;20458;-83
2021/11/15 07:35:51;;;;;;;46.93;31.43;;;;;;;9.32;87.17;95607.28;5093770;28;20444;-82
2021/11/15 07:38:20;;;;;;;46.97;29.70;;;;;;;9.25;88.05;95611.25;5094173;28;20463;-82
2021/11/15 07:40:47;;;;;;;53.60;31.93;;;;;;;8.96;89.34;95609.75;5041393;28;20420;-82
2021/11/15 07:43:15;;;;;;;56.63;31.30;;;;;;;8.94;89.80;95599.38;5093595;28;20481;-82
2021/11/15 07:45:42;;;;;;;50.90;32.13;;;;;;;8.89;90.46;95604.09;5040451;28;20529;-82
2021/11/15 07:48:09;;;;;;;49.30;31.10;;;;;;;8.84;91.41;95600.09;5093465;28;20473;-81
2021/11/15 07:50:36;;;;;;;56.83;35.13;;;;;;;8.65;93.15;95601.31;5093117;28;20482;-81
2021/11/15 07:53:04;;;;;;;60.73;31.97;;;;;;;8.63;94.31;95597.97;5093432;28;20432;-82
2021/11/15 07:55:34;;;;;;;47.03;28.87;;;;;;;8.50;93.96;95593.66;5093768;28;20439;-84
2021/11/15 07:58:03;;;;;;;54.30;30.87;;;;;;;8.50;94.40;95597.09;5093603;28;20462;-82
2021/11/15 08:00:31;;;;;;;61.83;34.17;;;;;;;8.56;95.42;95604.53;5058060;28;20444;-82
2021/11/15 08:02:59;;;;;;;48.10;30.03;;;;;;;8.54;95.71;95603.81;5093141;28;20433;-80
2021/11/15 08:05:26;;;;;;;51.20;30.23;;;;;;;8.65;95.33;95606.53;5093774;28;20956;-84
2021/11/15 08:07:53;;;;;;;53.60;31.10;;;;;;;8.61;95.84;95605.06;5041245;28;20481;-82
2021/11/15 08:10:22;;;;;;;54.90;33.23;;;;;;;8.60;95.96;95605.16;5093633;28;20432;-83
2021/11/15 08:12:53;;;;;;;59.63;31.17;;;;;;;8.70;95.55;95606.25;5074965;28;20538;-83
2021/11/15 08:15:22;;;;;;;51.67;31.23;;;;;;;8.72;95.54;95593.91;5093553;28;20484;-81
2021/11/15 08:17:52;;;;;;;56.97;33.97;;;;;;;8.74;95.27;95593.81;5093716;28;20453;-83
2021/11/15 08:20:21;;;;;;;54.50;32.60;;;;;;;8.72;95.46;95606.16;5093416;28;20511;-83
2021/11/15 08:26:40;;;;;;;53.23;31.90;;;;;;;8.86;95.93;95600.84;5069714;28;20449;-82
2021/11/15 08:29:11;;;;;;;51.90;30.40;;;;;;;8.71;95.66;95588.78;5052982;28;20472;-82
2021/11/15 08:31:40;;;;;;;47.70;31.87;;;;;;;8.75;96.74;95587.63;5053214;28;20468;-82
2021/11/15 08:34:07;;;;;;;49.27;31.40;;;;;;;8.85;97.29;95604.41;5052788;28;20532;-82
2021/11/15 08:36:35;;;;;;;52.17;31.83;;;;;;;9.05;96.36;95605.69;5052778;28;20845;-82
2021/11/15 08:39:05;;;;;;;51.10;32.57;;;;;;;9.23;96.16;95602.66;5053007;28;20933;-82
2021/11/15 08:41:34;;;;;;;62.27;37.37;;;;;;;9.36;95.15;95592.19;5052591;28;20444;-82
2021/11/15 08:44:04;;;;;;;83.63;45.70;;;;;;;9.39;94.90;95593.75;5051814;28;20484;-83
2021/11/15 08:46:34;;;;;;;66.57;37.70;;;;;;;9.43;94.78;95597.84;5053145;28;20543;-83
2021/11/15 08:49:02;;;;;;;60.60;33.00;;;;;;;9.34;94.59;95606.34;5055524;28;20570;-82
2021/11/15 08:51:29;;;;;;;54.37;33.20;;;;;;;9.39;94.46;95602.44;5055299;28;21032;-82
2021/11/15 08:54:00;;;;;;;52.80;33.13;;;;;;;9.51;94.49;95598.97;5055632;28;20446;-82
2021/11/15 08:56:27;;;;;;;45.17;27.60;;;;;;;9.52;92.92;95599.81;5055729;28;20543;-81
2021/11/15 08:58:55;;;;;;;40.60;28.30;;;;;;;9.54;91.34;95598.78;5053550;28;20452;-82
2021/11/15 09:01:24;;;;;;;48.30;30.60;;;;;;;9.49;90.51;95600.88;5055478;28;20536;-82
2021/11/15 09:03:54;;;;;;;47.27;29.03;;;;;;;9.51;92.18;95604.22;5055949;28;20441;-82
2021/11/15 09:06:22;;;;;;;51.73;29.40;;;;;;;9.65;93.49;95599.81;5056087;28;20999;-82
2021/11/15 09:08:49;;;;;;;49.10;27.70;;;;;;;9.43;93.49;95600.44;5056176;28;20489;-83
2021/11/15 09:11:17;;;;;;;59.13;29.60;;;;;;;9.50;93.19;95597.28;5055391;28;20968;-83
2021/11/15 09:13:46;;;;;;;44.33;28.83;;;;;;;9.67;91.68;95604.00;5055375;28;20521;-84
2021/11/15 09:16:15;;;;;;;42.87;23.60;;;;;;;9.65;90.81;95600.66;5052108;28;21041;-83
2021/11/15 09:18:43;;;;;;;36.57;19.47;;;;;;;9.74;86.32;95604.41;5055042;28;20547;-84
2021/11/15 09:21:13;;;;;;;46.57;22.53;;;;;;;9.98;87.06;95601.84;5036372;28;20431;-84
2021/11/15 09:23:42;;;;;;;29.53;18.63;;;;;;;9.93;82.18;95610.88;5041416;28;20445;-82
2021/11/15 09:26:11;;;;;;;18.70;15.30;;;;;;;9.98;79.69;95618.41;5055960;28;20525;-83
2021/11/15 09:28:39;;;;;;;35.87;18.73;;;;;;;9.98;79.79;95604.47;5090177;28;20491;-83
2021/11/15 09:31:06;;;;;;;24.30;17.83;;;;;;;10.00;79.57;95605.19;5096607;28;20495;-84
2021/11/15 09:33:34;;;;;;;28.70;17.83;;;;;;;10.13;80.48;95606.84;5096445;28;20499;-83
2021/11/15 09:36:02;;;;;;;24.07;18.37;;;;;;;10.14;79.58;95602.44;5096310;28;20433;-84
2021/11/15 09:38:30;;;;;;;21.67;15.40;;;;;;;10.17;78.05;95612.69;5096420;28;20464;-84
2021/11/15 09:41:02;;;;;;;20.30;16.63;;;;;;;10.22;77.51;95602.75;5044333;28;20518;-84
2021/11/15 09:43:34;;;;;;;20.00;14.13;;;;;;;10.19;77.87;95606.41;5095570;28;20508;-83
2021/11/15 09:46:02;;;;;;;30.30;18.03;;;;;;;10.11;78.98;95608.72;5096566;28;20489;-84
2021/11/15 09:48:32;;;;;;;30.57;17.60;;;;;;;10.19;79.30;95605.56;5095736;28;20510;-85
2021/11/15 09:50:59;;;;;;;27.33;17.60;;;;;;;10.26;79.09;95606.81;5096177;28;20432;-85
2021/11/15 09:53:26;;;;;;;21.90;14.77;;;;;;;10.22;78.40;95610.63;5095615;28;20880;-84
2021/11/15 09:59:17;;;;;;;20.83;14.70;;;;;;;10.32;77.26;95611.63;5095726;28;20392;-84
2021/11/15 10:01:46;;;;;;;22.97;15.10;;;;;;;10.34;76.32;95604.47;5095634;28;20814;-84
2021/11/15 10:04:16;;;;;;;20.50;15.00;;;;;;;10.36;76.14;95605.19;5095756;28;20546;-83
2021/11/15 10:06:44;;;;;;;20.03;14.67;;;;;;;10.39;75.32;95610.22;5095886;28;20436;-84
2021/11/15 10:09:11;;;;;;;21.30;15.43;;;;;;;10.47;75.18;95605.28;5094658;28;20981;-85
2021/11/15 10:11:41;;;;;;;27.47;17.40;;;;;;;10.48;75.44;95604.31;5095000;28;20526;-85
2021/11/15 10:14:08;;;;;;;25.93;17.33;;;;;;;10.58;75.96;95611.50;5094525;28;20522;-84
2021/11/15 10:16:37;;;;;;;22.80;16.40;;;;;;;10.60;74.84;95609.59;5094384;28;20954;-84
2021/11/15 10:19:06;;;;;;;17.77;14.07;;;;;;;10.65;74.23;95615.34;5094391;28;20444;-84
2021/11/15 10:21:36;;;;;;;25.37;16.80;;;;;;;10.70;74.05;95610.63;5094834;28;20456;-85
2021/11/15 10:24:05;;;;;;;43.77;33.93;;;;;;;10.61;73.30;95616.53;5095227;28;20432;-83
2021/11/15 10:26:37;;;;;;;26.27;21.83;;;;;;;10.65;73.24;95612.72;5059850;28;20467;-84
2021/11/15 10:29:08;;;;;;;24.40;16.17;;;;;;;10.75;74.05;95608.50;5094760;28;20491;-85
2021/11/15 10:31:49;;;;;;;28.80;15.90;;;;;;;10.79;72.67;95615.19;5095641;28;20432;-84
2021/11/15 10:34:25;;;;;;;26.00;19.20;;;;;;;10.74;73.24;95612.06;5095159;28;20429;-85
2021/11/15 10:37:11;;;;;;;25.67;16.90;;;;;;;10.74;71.44;95617.31;5094751;28;20444;-83
2021/11/15 10:43:08;;;;;;;17.03;12.80;;;;;;;10.71;71.70;95613.13;5094640;28;20497;-84
2021/11/15 10:45:38;;;;;;;21.13;13.37;;;;;;;10.87;70.79;95615.44;5094881;28;20444;-84
2021/11/15 10:48:11;;;;;;;19.37;14.43;;;;;;;11.00;71.30;95610.97;5094150;28;20486;-85
2021/11/15 10:50:47;;;;;;;20.60;14.50;;;;;;;11.06;70.58;95610.50;5094802;28;20451;-85
2021/11/15 10:53:20;;;;;;;19.70;13.07;;;;;;;10.95;71.47;95614.88;5094485;28;20444;-84
2021/11/15 10:56:06;;;;;;;20.37;15.10;;;;;;;10.91;70.37;95609.00;5094505;28;20505;-84
2021/11/15 10:58:39;;;;;;;19.50;15.30;;;;;;;10.84;71.67;95610.44;5094148;28;20445;-84
2021/11/15 11:01:06;;;;;;;20.90;15.63;;;;;;;10.81;71.35;95598.38;5058220;28;20531;-84
2021/11/15 11:03:37;;;;;;;18.67;13.50;;;;;;;10.90;71.11;95602.09;5094468;28;20465;-83
2021/11/15 11:06:08;;;;;;;19.90;14.37;;;;;;;10.84;71.09;95608.63;5093631;28;20431;-84
2021/11/15 11:08:40;;;;;;;21.83;13.70;;;;;;;10.75;72.17;95603.25;5093069;28;20825;-84
2021/11/15 11:11:12;;;;;;;20.33;14.20;;;;;;;10.83;71.43;95599.09;5093219;28;20514;-84
2021/11/15 11:13:51;;;;;;;21.23;13.07;;;;;;;10.84;71.41;95600.75;5094810;28;20436;-78
2021/11/15 11:16:19;;;;;;;22.70;15.37;;;;;;;10.95;72.14;95607.81;5094340;28;20449;-84
2021/11/15 11:18:52;;;;;;;19.13;13.90;;;;;;;10.89;71.81;95600.41;5093965;28;20977;-84
2021/11/15 11:22:08;;;;;;;17.03;14.00;;;;;;;10.96;72.03;95606.88;5094047;28;20439;-84
2021/11/15 11:24:43;;;;;;;18.87;15.17;;;;;;;11.11;71.40;95605.75;5093963;28;20419;-84
2021/11/15 11:27:13;;;;;;;19.57;15.00;;;;;;;11.18;71.24;95608.72;5093745;28;20487;-84
2021/11/15 11:29:41;;;;;;;20.83;15.03;;;;;;;11.14;72.07;95609.91;5094297;28;20472;-84
2021/11/15 11:32:12;;;;;;;21.93;17.70;;;;;;;11.18;71.52;95608.72;5094088;28;21015;-84
2021/11/15 11:35:19;;;;;;;25.63;17.00;;;;;;;11.18;72.17;95613.97;5093735;28;20978;-83
2021/11/15 11:37:48;;;;;;;22.07;15.37;;;;;;;11.22;71.22;95617.22;5093891;28;20520;-84
2021/11/15 11:40:16;;;;;;;39.27;17.37;;;;;;;11.33;71.24;95627.75;5093778;28;20898;-85
2021/11/15 11:42:43;;;;;;;24.27;16.07;;;;;;;11.38;70.67;95607.22;5093908;28;20475;-85
2021/11/15 11:45:12;;;;;;;22.60;17.93;;;;;;;11.46;69.76;95600.41;5094276;28;20850;-81
2021/11/15 11:47:42;;;;;;;33.40;19.40;;;;;;;11.44;69.52;95607.59;5095015;28;20452;-84
2021/11/15 11:50:11;;;;;;;34.23;15.83;;;;;;;11.44;70.29;95612.84;5093456;28;20479;-84
2021/11/15 11:52:40;;;;;;;22.97;16.47;;;;;;;11.49;70.30;95612.47;5093486;28;20445;-83
2021/11/15 11:55:20;;;;;;;25.70;17.43;;;;;;;11.49;70.36;95612.47;5093642;28;20452;-83
2021/11/15 11:57:47;;;;;;;24.40;17.30;;;;;;;11.41;71.19;95612.25;5093797;28;20440;-83
2021/11/15 12:00:16;;;;;;;26.70;18.67;;;;;;;11.39;71.42;95622.88;5093547;28;20854;-83
2021/11/15 12:02:45;;;;;;;33.67;19.50;;;;;;;11.37;71.21;95618.69;5093574;28;20480;-83
2021/11/15 12:05:14;;;;;;;20.63;16.40;;;;;;;11.14;74.08;95626.53;5093732;28;20432;-83
2021/11/15 12:07:48;;;;;;;18.70;14.77;;;;;;;11.13;74.52;95622.22;5093639;28;20443;-83
2021/11/15 12:10:36;;;;;;;36.70;21.40;;;;;;;11.24;74.21;95624.03;5095696;28;20548;-83
2021/11/15 12:13:06;;;;;;;26.83;19.67;;;;;;;11.08;76.19;95627.00;5097208;28;20449;-82
2021/11/15 12:15:40;;;;;;;26.80;19.40;;;;;;;11.04;75.40;95625.53;5093789;28;20528;-82
2021/11/15 12:18:12;;;;;;;28.20;17.73;;;;;;;10.92;76.73;95629.06;5093291;28;20939;-83
2021/11/15 12:21:14;;;;;;;36.10;19.83;;;;;;;10.88;77.77;95624.16;5061043;28;20439;-83
2021/11/15 12:23:44;;;;;;;30.73;18.50;;;;;;;10.69;79.06;95632.53;5035494;28;20866;-83
2021/11/15 12:26:15;;;;;;;23.00;19.23;;;;;;;10.69;79.32;95629.91;5035212;28;20964;-83
2021/11/15 12:28:43;;;;;;;29.50;18.93;;;;;;;10.68;78.73;95629.09;5035395;28;20581;-83
2021/11/15 12:31:12;;;;;;;30.53;20.70;;;;;;;10.74;79.92;95633.06;5034945;28;21026;-83
2021/11/15 12:33:42;;;;;;;26.13;16.60;;;;;;;10.69;77.72;95635.16;5034821;28;20434;-83
2021/11/15 12:36:10;;;;;;;28.43;20.00;;;;;;;10.70;78.34;95629.00;5034859;28;20442;-83
2021/11/15 12:38:45;;;;;;;25.17;16.77;;;;;;;10.67;77.50;95624.78;5035029;28;20461;-83
2021/11/15 12:41:45;;;;;;;20.40;15.47;;;;;;;10.63;77.56;95633.00;5034749;28;20440;-82
2021/11/15 12:44:29;;;;;;;26.30;17.43;;;;;;;10.58;79.11;95635.97;4956783;29;20805;-82
2021/11/15 12:47:17;;;;;;;30.43;18.97;;;;;;;10.56;78.88;95640.50;4956698;29;20441;-82
2021/11/15 12:49:47;;;;;;;25.67;16.07;;;;;;;10.62;78.41;95631.31;4956338;29;20486;-82
2021/11/15 12:52:34;;;;;;;21.10;14.03;;;;;;;10.57;77.52;95628.22;4956652;29;20445;-82
2021/11/15 12:55:10;;;;;;;18.43;13.30;;;;;;;10.52;76.20;95633.78;4956559;28;20447;-83
2021/11/15 12:57:42;;;;;;;20.57;15.27;;;;;;;10.62;76.61;95634.78;4956337;29;20569;-83
2021/11/15 13:00:14;;;;;;;23.10;15.60;;;;;;;10.63;76.83;95646.13;4980872;28;20930;-82
2021/11/15 13:02:43;;;;;;;21.70;16.57;;;;;;;10.70;76.17;95647.38;4969279;28;20434;-83
2021/11/15 13:05:11;;;;;;;22.63;16.10;;;;;;;10.66;76.99;95640.66;5034293;28;20541;-82
2021/11/15 13:10:59;;;;;;;27.13;14.60;;;;;;;10.60;75.60;95641.94;5033821;28;20414;-78
2021/11/15 13:13:27;;;;;;;20.60;14.10;;;;;;;10.59;75.27;95642.88;4985363;28;20458;-84
2021/11/15 13:15:54;;;;;;;20.80;14.73;;;;;;;10.53;75.72;95649.44;5034242;28;20439;-82
2021/11/15 13:18:21;;;;;;;21.83;14.17;;;;;;;10.60;74.98;95641.94;5016080;28;20446;-81
2021/11/15 13:20:48;;;;;;;18.50;14.07;;;;;;;10.53;75.63;95645.97;5061238;28;20921;-82
2021/11/15 13:23:17;;;;;;;28.83;16.93;;;;;;;10.70;76.74;95655.25;5044805;28;20534;-84